createdAt,value
2018-02-08T00:01:17.051Z,61.57
2018-02-08T00:03:43.400Z,61.37
2018-02-08T00:06:09.629Z,61.28
2018-02-08T00:08:36.612Z,61.20
2018-02-08T00:11:02.871Z,60.64
2018-02-08T00:13:29.119Z,61.25
2018-02-08T00:15:55.366Z,61.11
2018-02-08T00:18:22.371Z,61.23
2018-02-08T00:20:48.629Z,61.04
2018-02-08T00:23:14.875Z,60.74
2018-02-08T00:25:41.123Z,59.77
2018-02-08T00:28:07.390Z,59.46
2018-02-08T00:30:33.635Z,59.78
2018-02-08T00:32:59.899Z,59.41
2018-02-08T00:35:26.902Z,59.38
2018-02-08T00:37:53.152Z,58.63
2018-02-08T00:40:19.386Z,60.16
2018-02-08T00:42:45.624Z,60.04
2018-02-08T00:45:12.604Z,60.03
2018-02-08T00:47:38.872Z,59.47
2018-02-08T00:50:05.286Z,59.71
2018-02-08T00:52:31.532Z,59.63
2018-02-08T00:54:57.798Z,58.63
2018-02-08T00:57:24.805Z,58.83
2018-02-08T00:59:51.034Z,58.32
2018-02-08T01:02:17.276Z,58.72
2018-02-08T01:04:43.496Z,58.99
2018-02-08T01:07:09.950Z,59.78
2018-02-08T01:09:36.176Z,59.34
2018-02-08T01:12:02.457Z,59.58
2018-02-08T01:14:28.699Z,60.19
2018-02-08T01:16:54.974Z,60.30
2018-02-08T01:19:22.003Z,59.45
2018-02-08T01:21:48.249Z,59.77
2018-02-08T01:24:14.478Z,59.59
2018-02-08T01:26:40.699Z,58.79
2018-02-08T01:29:06.927Z,59.35
2018-02-08T01:31:33.163Z,59.15
2018-02-08T01:34:00.149Z,59.74
2018-02-08T01:36:26.406Z,60.35
2018-02-08T01:38:52.639Z,60.84
2018-02-08T01:41:18.865Z,60.98
2018-02-08T01:43:45.091Z,61.46
2018-02-08T01:46:11.348Z,61.24
2018-02-08T01:48:38.351Z,61.11
2018-02-08T01:51:04.614Z,61.13
2018-02-08T01:53:30.851Z,61.80
2018-02-08T01:55:57.082Z,61.78
2018-02-08T01:58:23.344Z,61.78
2018-02-08T02:00:49.572Z,61.72
2018-02-08T02:03:15.804Z,61.14
2018-02-08T02:05:42.045Z,61.05
2018-02-08T02:08:08.278Z,60.68
2018-02-08T02:10:35.352Z,59.95
2018-02-08T02:13:01.595Z,60.09
2018-02-08T02:15:27.886Z,61.01
2018-02-08T02:17:54.123Z,60.99
2018-02-08T02:20:20.431Z,60.85
2018-02-08T02:22:46.681Z,61.22
2018-02-08T02:25:12.901Z,61.67
2018-02-08T02:27:39.136Z,60.93
2018-02-08T02:30:05.366Z,61.09
2018-02-08T02:32:31.617Z,60.63
2018-02-08T02:34:57.835Z,60.59
2018-02-08T02:37:24.060Z,60.94
2018-02-08T02:39:50.341Z,61.12
2018-02-08T02:42:17.343Z,61.30
2018-02-08T02:44:43.562Z,60.77
2018-02-08T02:47:09.809Z,60.53
2018-02-08T02:49:36.094Z,61.41
2018-02-08T02:52:02.364Z,60.68
2018-02-08T02:54:28.616Z,60.36
2018-02-08T02:56:54.854Z,60.09
2018-02-08T02:59:21.840Z,60.49
2018-02-08T03:01:48.100Z,60.61
2018-02-08T03:04:14.366Z,61.14
2018-02-08T03:06:40.598Z,60.37
2018-02-08T03:09:07.572Z,60.25
2018-02-08T03:11:33.785Z,60.14
2018-02-08T03:14:00.758Z,59.97
2018-02-08T03:16:26.996Z,60.26
2018-02-08T03:18:53.254Z,60.43
2018-02-08T03:21:19.498Z,61.04
2018-02-08T03:23:45.727Z,60.96
2018-02-08T03:26:12.649Z,60.76
2018-02-08T03:28:38.888Z,61.00
2018-02-08T03:31:09.062Z,60.73
2018-02-08T03:33:35.280Z,60.70
2018-02-08T03:36:01.514Z,60.95
2018-02-08T03:38:27.794Z,60.99
2018-02-08T03:40:54.018Z,61.11
2018-02-08T03:43:20.245Z,61.34
2018-02-08T03:45:46.705Z,60.86
2018-02-08T03:48:12.952Z,61.07
2018-02-08T03:50:39.925Z,60.80
2018-02-08T03:53:06.188Z,61.06
2018-02-08T03:55:32.440Z,60.93
2018-02-08T03:57:58.671Z,61.17
2018-02-08T04:00:25.674Z,61.18
2018-02-08T04:02:51.925Z,61.58
2018-02-08T04:05:18.174Z,61.09
2018-02-08T04:07:44.407Z,60.69
2018-02-08T04:10:11.370Z,61.10
2018-02-08T04:12:37.617Z,61.02
2018-02-08T04:15:03.879Z,61.33
2018-02-08T04:17:30.115Z,60.74
2018-02-08T04:19:56.338Z,60.83
2018-02-08T04:22:22.587Z,60.45
2018-02-08T04:24:48.855Z,60.36
2018-02-08T04:27:15.091Z,59.73
2018-02-08T04:29:41.339Z,59.51
2018-02-08T04:32:07.611Z,59.81
2018-02-08T04:34:33.862Z,60.25
2018-02-08T04:37:00.215Z,61.31
2018-02-08T04:39:45.311Z,61.50
2018-02-08T04:42:30.083Z,61.50
2018-02-08T04:45:15.006Z,61.70
2018-02-08T04:47:57.045Z,62.02
2018-02-08T04:50:23.279Z,62.42
2018-02-08T04:52:49.504Z,62.37
2018-02-08T04:55:15.743Z,63.43
2018-02-08T04:57:41.963Z,62.85
2018-02-08T05:00:08.203Z,62.85
2018-02-08T05:02:34.445Z,62.70
2018-02-08T05:05:00.655Z,62.38
2018-02-08T05:07:26.929Z,61.51
2018-02-08T05:09:53.239Z,61.67
2018-02-08T05:12:20.207Z,61.86
2018-02-08T05:14:46.464Z,61.97
2018-02-08T05:17:12.692Z,62.13
2018-02-08T05:19:38.944Z,61.69
2018-02-08T05:22:05.196Z,61.52
2018-02-08T05:24:31.431Z,61.04
2018-02-08T05:26:58.436Z,60.49
2018-02-08T05:29:24.675Z,60.31
2018-02-08T05:31:50.892Z,60.56
2018-02-08T05:34:17.124Z,60.43
2018-02-08T05:36:43.367Z,60.53
2018-02-08T05:39:09.627Z,60.24
2018-02-08T05:41:36.616Z,59.82
2018-02-08T05:44:02.850Z,59.87
2018-02-08T05:46:29.120Z,59.87
2018-02-08T05:48:55.362Z,61.24
2018-02-08T05:51:22.362Z,60.73
2018-02-08T05:53:48.588Z,60.93
2018-02-08T05:56:14.848Z,61.31
2018-02-08T05:58:41.076Z,62.40
2018-02-08T06:01:07.337Z,62.19
2018-02-08T06:03:34.323Z,62.07
2018-02-08T06:06:00.557Z,61.50
2018-02-08T06:08:26.789Z,62.08
2018-02-08T06:10:53.041Z,61.63
2018-02-08T06:13:19.342Z,61.74
2018-02-08T06:15:45.609Z,61.75
2018-02-08T06:18:11.867Z,61.62
2018-02-08T06:20:38.111Z,61.01
2018-02-08T06:23:04.360Z,60.46
2018-02-08T06:25:30.669Z,60.31
2018-02-08T06:27:57.015Z,60.17
2018-02-08T06:30:23.287Z,60.50
2018-02-08T06:32:49.493Z,60.57
2018-02-08T06:35:18.068Z,60.39
2018-02-08T06:37:44.315Z,60.56
2018-02-08T06:40:10.609Z,60.81
2018-02-08T06:42:36.840Z,60.53
2018-02-08T06:45:03.068Z,60.21
2018-02-08T06:47:29.299Z,60.18
2018-02-08T06:49:55.532Z,61.34
2018-02-08T06:52:21.784Z,61.27
2018-02-08T06:54:48.016Z,61.59
2018-02-08T06:57:14.254Z,61.46
2018-02-08T06:59:40.532Z,61.29
2018-02-08T07:02:06.763Z,60.99
2018-02-08T07:04:33.038Z,60.55
2018-02-08T07:07:00.022Z,60.05
2018-02-08T07:09:26.270Z,59.94
2018-02-08T07:11:52.560Z,59.90
2018-02-08T07:14:18.833Z,59.56
2018-02-08T07:16:45.055Z,59.36
2018-02-08T07:19:11.326Z,59.40
2018-02-08T07:21:37.602Z,59.68
2018-02-08T07:24:04.655Z,59.45
2018-02-08T07:26:30.951Z,58.77
2018-02-08T07:28:57.233Z,58.99
2018-02-08T07:31:23.463Z,59.37
2018-02-08T07:33:49.750Z,58.62
2018-02-08T07:36:16.026Z,59.02
2018-02-08T07:38:42.291Z,59.07
2018-02-08T07:41:08.570Z,59.24
2018-02-08T07:43:34.846Z,59.31
2018-02-08T07:46:01.113Z,58.76
2018-02-08T07:48:28.116Z,58.56
2018-02-08T07:50:54.405Z,58.62
2018-02-08T07:53:21.425Z,58.96
2018-02-08T07:55:48.428Z,59.30
2018-02-08T07:58:14.670Z,58.95
2018-02-08T08:00:40.928Z,58.46
2018-02-08T08:03:07.170Z,57.84
2018-02-08T08:05:34.160Z,57.94
2018-02-08T08:08:00.452Z,57.65
2018-02-08T08:10:27.496Z,57.18
2018-02-08T08:12:54.549Z,56.74
2018-02-08T08:15:21.639Z,56.58
2018-02-08T08:17:47.929Z,56.68
2018-02-08T08:20:14.983Z,56.66
2018-02-08T08:22:41.271Z,56.36
2018-02-08T08:25:07.564Z,55.80
2018-02-08T08:27:33.866Z,55.82
2018-02-08T08:30:00.872Z,56.28
2018-02-08T08:32:28.289Z,56.07
2018-02-08T08:34:54.561Z,55.20
2018-02-08T08:37:20.882Z,55.26
2018-02-08T08:39:47.212Z,55.97
2018-02-08T08:42:14.322Z,56.84
2018-02-08T08:44:40.872Z,57.86
2018-02-08T08:47:07.338Z,57.28
2018-02-08T08:49:33.917Z,56.84
2018-02-08T08:52:00.969Z,56.51
2018-02-08T08:54:27.277Z,56.32
2018-02-08T08:56:54.273Z,57.06
2018-02-08T08:59:20.647Z,57.13
2018-02-08T09:01:46.976Z,55.65
2018-02-08T09:04:13.308Z,54.73
2018-02-08T09:06:39.589Z,55.93
2018-02-08T09:09:05.832Z,55.81
2018-02-08T09:11:32.168Z,55.63
2018-02-08T09:13:58.432Z,54.98
2018-02-08T09:16:24.721Z,56.22
2018-02-08T09:18:50.953Z,55.54
2018-02-08T09:21:17.204Z,54.40
2018-02-08T09:23:43.532Z,54.37
2018-02-08T09:26:09.936Z,53.82
2018-02-08T09:28:36.230Z,53.05
2018-02-08T09:31:03.276Z,52.43
2018-02-08T09:33:30.366Z,51.90
2018-02-08T09:35:57.372Z,52.36
2018-02-08T09:38:24.375Z,52.00
2018-02-08T09:40:50.644Z,51.83
2018-02-08T09:43:16.895Z,52.39
2018-02-08T09:45:44.020Z,53.21
2018-02-08T09:48:10.265Z,52.63
2018-02-08T09:50:36.509Z,52.46
2018-02-08T09:53:02.761Z,51.50
2018-02-08T09:55:29.011Z,50.67
2018-02-08T09:57:55.295Z,50.82
2018-02-08T10:00:21.583Z,51.64
2018-02-08T10:02:47.872Z,52.22
2018-02-08T10:05:14.299Z,52.00
2018-02-08T10:07:40.554Z,50.70
2018-02-08T10:10:06.831Z,51.33
2018-02-08T10:12:33.122Z,49.90
2018-02-08T10:14:59.355Z,49.91
2018-02-08T10:17:25.646Z,49.33
2018-02-08T10:19:51.886Z,48.22
2018-02-08T10:22:18.211Z,49.01
2018-02-08T10:24:44.512Z,49.40
2018-02-08T10:27:11.484Z,49.17
2018-02-08T10:29:37.718Z,48.67
2018-02-08T10:32:04.018Z,47.99
2018-02-08T10:34:31.040Z,49.29
2018-02-08T10:36:57.496Z,48.81
2018-02-08T10:39:24.484Z,47.36
2018-02-08T10:41:50.772Z,46.21
2018-02-08T10:44:17.775Z,47.26
2018-02-08T10:46:44.035Z,46.22
2018-02-08T10:49:11.055Z,46.46
2018-02-08T10:51:37.361Z,45.65
2018-02-08T10:54:03.588Z,44.25
2018-02-08T10:56:29.847Z,43.79
2018-02-08T10:58:56.107Z,43.02
2018-02-08T11:01:22.367Z,46.04
2018-02-08T11:03:48.635Z,46.87
2018-02-08T11:06:14.889Z,47.02
2018-02-08T11:08:41.135Z,44.66
2018-02-08T11:11:08.145Z,43.59
2018-02-08T11:13:34.411Z,45.30
2018-02-08T11:16:01.384Z,44.90
2018-02-08T11:18:27.671Z,44.43
2018-02-08T11:20:53.916Z,44.79
2018-02-08T11:23:20.886Z,44.94
2018-02-08T11:25:47.154Z,44.51
2018-02-08T11:28:13.436Z,44.08
2018-02-08T11:30:40.452Z,45.12
2018-02-08T11:33:06.737Z,44.21
2018-02-08T11:35:33.026Z,43.56
2018-02-08T11:38:00.161Z,42.54
2018-02-08T11:40:27.141Z,43.84
2018-02-08T11:42:53.428Z,44.22
2018-02-08T11:45:19.991Z,44.13
2018-02-08T11:47:46.999Z,44.02
2018-02-08T11:50:13.245Z,43.46
2018-02-08T11:52:39.545Z,42.49
2018-02-08T11:55:05.844Z,41.89
2018-02-08T11:57:32.903Z,43.11
2018-02-08T11:59:59.137Z,42.48
2018-02-08T12:02:25.406Z,41.40
2018-02-08T12:04:51.676Z,40.96
2018-02-08T12:07:18.688Z,41.99
2018-02-08T12:09:44.968Z,41.57
2018-02-08T12:12:11.264Z,42.96
2018-02-08T12:14:38.304Z,43.05
2018-02-08T12:17:05.354Z,42.88
2018-02-08T12:19:31.598Z,42.20
2018-02-08T12:21:58.665Z,43.34
2018-02-08T12:24:25.668Z,43.43
2018-02-08T12:26:51.926Z,44.18
2018-02-08T12:29:18.927Z,44.00
2018-02-08T12:31:45.169Z,43.11
2018-02-08T12:34:11.471Z,42.76
2018-02-08T12:36:37.728Z,43.66
2018-02-08T12:39:03.972Z,44.19
2018-02-08T12:41:30.212Z,44.32
2018-02-08T12:43:57.242Z,43.56
2018-02-08T12:46:23.531Z,43.30
2018-02-08T12:48:49.777Z,43.00
2018-02-08T12:51:16.145Z,42.43
2018-02-08T12:53:42.375Z,41.74
2018-02-08T12:56:08.630Z,43.27
2018-02-08T12:58:34.905Z,44.72
2018-02-08T13:01:01.192Z,45.22
2018-02-08T13:03:28.216Z,45.31
2018-02-08T13:05:54.502Z,45.63
2018-02-08T13:08:20.808Z,45.62
2018-02-08T13:10:47.148Z,46.77
2018-02-08T13:13:13.420Z,46.53
2018-02-08T13:15:39.681Z,46.77
2018-02-08T13:18:06.751Z,48.57
2018-02-08T13:20:33.019Z,47.81
2018-02-08T13:22:59.344Z,46.75
2018-02-08T13:25:25.647Z,46.53
2018-02-08T13:27:52.015Z,46.22
2018-02-08T13:30:18.449Z,46.98
2018-02-08T13:32:44.792Z,46.83
2018-02-08T13:35:11.056Z,46.72
2018-02-08T13:37:38.078Z,46.21
2018-02-08T13:40:04.377Z,47.88
2018-02-08T13:42:30.636Z,48.94
2018-02-08T13:44:56.933Z,48.38
2018-02-08T13:47:29.319Z,48.10
2018-02-08T13:50:01.678Z,47.87
2018-02-08T13:52:34.082Z,47.53
2018-02-08T13:55:00.421Z,47.99
2018-02-08T13:57:29.585Z,47.92
2018-02-08T14:02:56.508Z,47.53
2018-02-08T14:05:22.749Z,46.34
2018-02-08T14:07:49.068Z,47.83
2018-02-08T14:10:15.330Z,48.09
2018-02-08T14:12:41.700Z,48.49
2018-02-08T14:15:07.966Z,48.45
2018-02-08T14:17:34.264Z,48.94
2018-02-08T14:20:00.542Z,49.69
2018-02-08T14:22:26.831Z,50.11
2018-02-08T14:24:53.075Z,49.72
2018-02-08T14:27:20.118Z,48.71
2018-02-08T14:29:47.129Z,47.32
2018-02-08T14:32:13.439Z,47.38
2018-02-08T14:34:40.396Z,47.28
2018-02-08T14:37:06.704Z,48.87
2018-02-08T14:39:32.962Z,48.72
2018-02-08T14:41:59.208Z,49.28
2018-02-08T14:44:25.495Z,49.46
2018-02-08T14:46:51.780Z,49.89
2018-02-08T14:49:18.084Z,50.62
2018-02-08T14:51:44.340Z,50.07
2018-02-08T14:54:10.580Z,50.26
2018-02-08T14:56:37.624Z,51.39
2018-02-08T14:59:04.646Z,50.55
2018-02-08T15:01:30.924Z,50.82
2018-02-08T15:03:57.204Z,49.82
2018-02-08T15:06:23.502Z,49.20
2018-02-08T15:08:49.767Z,49.15
2018-02-08T15:11:16.022Z,49.38
2018-02-08T15:13:43.025Z,49.25
2018-02-08T15:16:09.350Z,49.04
2018-02-08T15:18:35.636Z,49.21
2018-02-08T15:21:02.616Z,50.12
2018-02-08T15:23:28.890Z,51.42
2018-02-08T15:25:55.129Z,51.38
2018-02-08T15:28:21.379Z,50.53
2018-02-08T15:30:48.377Z,49.89
2018-02-08T15:33:14.652Z,49.98
2018-02-08T15:35:41.649Z,49.91
2018-02-08T15:38:07.896Z,49.32
2018-02-08T15:40:34.144Z,49.68
2018-02-08T15:43:01.210Z,49.33
2018-02-08T15:45:27.462Z,48.92
2018-02-08T15:47:53.743Z,48.77
2018-02-08T15:50:20.052Z,48.47
2018-02-08T15:52:46.300Z,49.01
2018-02-08T15:55:12.628Z,47.99
2018-02-08T15:57:38.911Z,48.08
2018-02-08T16:00:05.182Z,48.33
2018-02-08T16:02:31.488Z,48.95
2018-02-08T16:04:57.768Z,48.59
2018-02-08T16:07:24.793Z,48.48
2018-02-08T16:09:51.085Z,48.45
2018-02-08T16:12:17.410Z,49.07
2018-02-08T16:14:43.666Z,48.97
2018-02-08T16:17:09.934Z,48.41
2018-02-08T16:19:36.990Z,48.60
2018-02-08T16:22:03.321Z,48.80
2018-02-08T16:24:29.622Z,49.31
2018-02-08T16:26:55.891Z,49.66
2018-02-08T16:29:22.178Z,49.68
2018-02-08T16:31:48.449Z,49.97
2018-02-08T16:34:14.713Z,49.61
2018-02-08T16:36:40.952Z,49.69
2018-02-08T16:39:07.272Z,50.32
2018-02-08T16:41:33.524Z,50.94
2018-02-08T16:43:59.862Z,51.76
2018-02-08T16:46:26.112Z,52.32
2018-02-08T16:48:53.125Z,52.78
2018-02-08T16:51:19.485Z,52.35
2018-02-08T16:53:45.742Z,52.21
2018-02-08T16:56:12.006Z,52.00
2018-02-08T16:58:38.268Z,51.77
2018-02-08T17:01:04.550Z,51.30
2018-02-08T17:03:30.834Z,50.58
2018-02-08T17:05:57.887Z,50.71
2018-02-08T17:08:24.983Z,51.45
2018-02-08T17:10:51.225Z,51.18
2018-02-08T17:13:17.539Z,51.07
2018-02-08T17:15:43.826Z,51.24
2018-02-08T17:18:10.919Z,51.26
2018-02-08T17:20:37.207Z,52.86
2018-02-08T17:23:04.210Z,52.57
2018-02-08T17:25:30.520Z,52.19
2018-02-08T17:27:56.965Z,52.49
2018-02-08T17:30:23.209Z,52.91
2018-02-08T17:32:49.495Z,52.66
2018-02-08T17:35:15.774Z,52.60
2018-02-08T17:37:42.041Z,52.26
2018-02-08T17:40:13.110Z,52.20
2018-02-08T17:42:39.547Z,51.61
2018-02-08T17:45:05.965Z,51.68
2018-02-08T17:47:32.210Z,51.97
2018-02-08T17:49:58.499Z,51.69
2018-02-08T17:52:25.540Z,52.65
2018-02-08T17:54:51.936Z,52.89
2018-02-08T17:57:18.219Z,53.07
2018-02-08T17:59:45.265Z,53.41
2018-02-08T18:02:11.535Z,52.97
2018-02-08T18:04:37.867Z,52.72
2018-02-08T18:07:04.221Z,52.99
2018-02-08T18:09:30.646Z,53.73
2018-02-08T18:11:57.051Z,54.36
2018-02-08T18:14:23.379Z,54.30
2018-02-08T18:16:49.719Z,54.45
2018-02-08T18:19:16.047Z,54.43
2018-02-08T18:21:42.320Z,54.64
2018-02-08T18:24:08.783Z,54.30
2018-02-08T18:26:36.338Z,54.42
2018-02-08T18:29:03.426Z,55.26
2018-02-08T18:31:29.906Z,55.37
2018-02-08T18:33:56.286Z,55.65
2018-02-08T18:36:22.628Z,56.31
2018-02-08T18:38:48.896Z,56.15
2018-02-08T18:41:15.246Z,56.21
2018-02-08T18:43:41.566Z,56.46
2018-02-08T18:46:08.651Z,56.44
2018-02-08T18:48:34.985Z,56.83
2018-02-08T18:51:01.329Z,57.63
2018-02-08T18:53:27.662Z,57.58
2018-02-08T18:55:53.973Z,57.74
2018-02-08T18:58:20.235Z,57.46
2018-02-08T19:00:46.579Z,57.68
2018-02-08T19:03:13.041Z,57.70
2018-02-08T19:05:39.295Z,57.57
2018-02-08T19:08:06.365Z,57.60
2018-02-08T19:10:32.693Z,57.57
2018-02-08T19:12:59.105Z,57.57
2018-02-08T19:15:26.160Z,58.02
2018-02-08T19:17:52.492Z,58.14
2018-02-08T19:20:18.880Z,58.10
2018-02-08T19:22:45.206Z,57.58
2018-02-08T19:25:11.620Z,57.85
2018-02-08T19:27:37.904Z,58.24
2018-02-08T19:30:05.004Z,58.16
2018-02-08T19:32:32.010Z,58.17
2018-02-08T19:34:59.069Z,58.59
2018-02-08T19:37:25.523Z,57.87
2018-02-08T19:39:51.789Z,57.90
2018-02-08T19:42:18.109Z,57.67
2018-02-08T19:44:44.385Z,57.38
2018-02-08T19:47:11.445Z,56.62
2018-02-08T19:49:37.753Z,56.90
2018-02-08T19:52:04.891Z,56.85
2018-02-08T19:54:31.944Z,56.95
2018-02-08T19:56:58.968Z,56.65
2018-02-08T19:59:25.296Z,56.47
2018-02-08T20:01:51.568Z,56.43
2018-02-08T20:04:18.592Z,56.05
2018-02-08T20:06:45.040Z,55.94
2018-02-08T20:09:12.078Z,55.73
2018-02-08T20:11:38.416Z,55.98
2018-02-08T20:14:11.769Z,56.16
2018-02-08T20:16:38.141Z,56.99
2018-02-08T20:19:04.527Z,56.77
2018-02-08T20:21:30.859Z,57.64
2018-02-08T20:23:57.216Z,57.65
2018-02-08T20:26:23.492Z,57.34
2018-02-08T20:28:49.771Z,56.18
2018-02-08T20:31:16.150Z,55.79
2018-02-08T20:33:42.454Z,56.46
2018-02-08T20:36:08.721Z,56.47
2018-02-08T20:38:35.024Z,57.15
2018-02-08T20:41:02.098Z,57.63
2018-02-08T20:43:28.394Z,57.79
2018-02-08T20:45:54.692Z,57.96
2018-02-08T20:48:20.977Z,57.90
2018-02-08T20:50:47.253Z,58.30
2018-02-08T20:53:13.585Z,58.36
2018-02-08T20:55:39.880Z,58.26
2018-02-08T20:58:06.242Z,58.46
2018-02-08T21:00:33.292Z,58.42
2018-02-08T21:02:59.592Z,58.20
2018-02-08T21:05:25.877Z,58.35
2018-02-08T21:07:52.143Z,58.01
2018-02-08T21:10:18.443Z,57.72
2018-02-08T21:12:44.685Z,57.74
2018-02-08T21:15:11.715Z,57.15
2018-02-08T21:17:38.061Z,57.55
2018-02-08T21:20:05.075Z,57.25
2018-02-08T21:22:31.372Z,57.48
2018-02-08T21:24:58.327Z,57.86
2018-02-08T21:27:24.600Z,57.30
2018-02-08T21:29:50.910Z,58.07
2018-02-08T21:32:17.200Z,57.22
2018-02-08T21:34:43.472Z,57.96
2018-02-08T21:37:09.787Z,57.91
2018-02-08T21:39:36.092Z,58.45
2018-02-08T21:42:02.430Z,59.22
2018-02-08T21:44:28.732Z,59.35
2018-02-08T21:46:55.769Z,59.73
2018-02-08T21:49:22.068Z,60.07
2018-02-08T21:51:48.403Z,60.25
2018-02-08T21:54:14.673Z,60.67
2018-02-08T21:56:41.693Z,60.58
2018-02-08T21:59:07.956Z,60.82
2018-02-08T22:01:34.977Z,60.43
2018-02-08T22:04:01.284Z,60.54
2018-02-08T22:06:27.563Z,60.75
2018-02-08T22:08:54.618Z,61.06
2018-02-08T22:11:21.641Z,61.25
2018-02-08T22:13:47.966Z,61.24
2018-02-08T22:16:14.256Z,61.51
2018-02-08T22:18:40.597Z,61.80
2018-02-08T22:21:06.911Z,62.33
2018-02-08T22:23:33.212Z,62.03
2018-02-08T22:26:00.208Z,62.24
2018-02-08T22:28:26.478Z,62.69
2018-02-08T22:30:53.473Z,62.59
2018-02-08T22:33:19.713Z,62.42
2018-02-08T22:35:45.954Z,62.30
2018-02-08T22:38:12.273Z,62.32
2018-02-08T22:40:38.541Z,61.95
2018-02-08T22:43:04.891Z,61.80
2018-02-08T22:45:31.915Z,61.66
2018-02-08T22:47:59.729Z,61.57
2018-02-08T22:50:26.071Z,61.72
2018-02-08T22:52:52.321Z,61.49
2018-02-08T22:55:18.595Z,61.62
2018-02-08T22:57:52.709Z,61.47
2018-02-08T23:00:19.837Z,61.27
2018-02-08T23:02:46.085Z,60.83
2018-02-08T23:05:13.260Z,61.49
2018-02-08T23:07:40.269Z,61.96
2018-02-08T23:10:06.567Z,61.90
2018-02-08T23:12:32.845Z,61.86
2018-02-08T23:14:59.867Z,62.09
2018-02-08T23:17:26.157Z,62.35
2018-02-08T23:19:52.435Z,62.65
2018-02-08T23:22:18.679Z,62.03
2018-02-08T23:24:45.704Z,62.54
2018-02-08T23:27:12.048Z,62.25
2018-02-08T23:29:39.082Z,62.55
2018-02-08T23:32:05.416Z,62.69
2018-02-08T23:34:31.751Z,62.20
2018-02-08T23:36:58.057Z,62.08
2018-02-08T23:39:24.414Z,61.95
2018-02-08T23:41:50.783Z,62.35
2018-02-08T23:44:17.060Z,62.44
2018-02-08T23:46:43.336Z,62.51
2018-02-08T23:49:09.640Z,62.98
2018-02-08T23:51:35.936Z,62.92
2018-02-08T23:54:02.291Z,63.08
2018-02-08T23:56:28.599Z,63.03
2018-02-08T23:58:54.891Z,62.65
